createdAt,value
2023-05-06T00:02:56.162Z,12.85
2023-05-06T00:07:59.770Z,10.73
2023-05-06T00:13:03.273Z,8.05
2023-05-06T00:18:07.419Z,8.82
2023-05-06T00:23:11.543Z,7.57
2023-05-06T00:28:15.833Z,9.05
2023-05-06T00:33:19.411Z,8.50
2023-05-06T00:38:23.228Z,9.15
2023-05-06T00:43:27.029Z,8.23
2023-05-06T00:48:30.507Z,8.48
2023-05-06T00:53:34.549Z,9.95
2023-05-06T00:58:38.543Z,9.35
2023-05-06T01:03:42.697Z,8.25
2023-05-06T01:08:55.058Z,8.57
2023-05-06T01:14:07.001Z,9.60
2023-05-06T01:19:17.605Z,9.43
2023-05-06T01:24:21.309Z,9.73
2023-05-06T01:29:24.407Z,7.80
2023-05-06T01:34:42.764Z,7.97
2023-05-06T01:39:48.869Z,8.10
2023-05-06T01:44:53.885Z,9.05
2023-05-06T01:49:59.279Z,9.10
2023-05-06T01:55:03.297Z,7.63
2023-05-06T02:00:07.595Z,8.05
2023-05-06T02:05:16.208Z,7.57
2023-05-06T02:10:23.738Z,6.60
2023-05-06T02:15:34.719Z,10.27
2023-05-06T02:20:38.266Z,7.38
2023-05-06T02:25:42.955Z,7.57
2023-05-06T02:30:46.379Z,8.15
2023-05-06T02:35:50.659Z,10.68
2023-05-06T02:40:54.364Z,7.85
2023-05-06T02:45:58.305Z,7.10
2023-05-06T02:51:02.697Z,8.43
2023-05-06T02:56:06.516Z,11.27
2023-05-06T03:01:09.715Z,7.88
2023-05-06T03:06:13.753Z,8.43
2023-05-06T03:11:16.775Z,7.25
2023-05-06T03:16:21.358Z,8.23
2023-05-06T03:21:28.107Z,8.18
2023-05-06T03:26:32.154Z,8.63
2023-05-06T03:31:36.182Z,7.68
2023-05-06T03:36:39.904Z,8.15
2023-05-06T03:41:43.782Z,8.40
2023-05-06T03:46:47.136Z,8.00
2023-05-06T03:51:51.549Z,7.60
2023-05-06T03:56:55.645Z,7.88
2023-05-06T04:01:59.226Z,8.60
2023-05-06T04:07:04.272Z,12.82
2023-05-06T04:12:08.804Z,7.70
2023-05-06T04:17:13.143Z,7.35
2023-05-06T04:22:18.281Z,7.00
2023-05-06T04:27:21.585Z,7.65
2023-05-06T04:32:26.017Z,6.88
2023-05-06T04:37:31.181Z,7.63
2023-05-06T04:42:48.047Z,9.85
2023-05-06T04:47:56.773Z,10.57
2023-05-06T04:53:01.452Z,21.33
2023-05-06T04:58:06.017Z,15.13
2023-05-06T05:03:10.804Z,7.43
2023-05-06T05:08:15.106Z,10.02
2023-05-06T05:13:19.430Z,21.40
2023-05-06T05:18:23.309Z,13.93
2023-05-06T05:23:31.281Z,15.50
2023-05-06T05:28:35.819Z,21.95
2023-05-06T05:33:40.504Z,32.00
2023-05-06T05:38:49.145Z,21.25
2023-05-06T05:43:53.741Z,10.90
2023-05-06T05:48:58.264Z,6.10
2023-05-06T05:54:02.435Z,7.43
2023-05-06T05:59:06.647Z,5.32
2023-05-06T06:04:11.393Z,10.02
2023-05-06T06:09:14.629Z,4.25
2023-05-06T06:14:18.950Z,4.80
2023-05-06T06:19:24.439Z,5.63
2023-05-06T06:24:28.577Z,5.13
2023-05-06T06:29:34.008Z,3.88
2023-05-06T06:34:37.776Z,7.43
2023-05-06T06:39:41.129Z,4.93
2023-05-06T06:44:45.176Z,6.10
2023-05-06T06:49:48.424Z,5.15
2023-05-06T06:54:51.497Z,6.35
2023-05-06T06:59:56.164Z,6.20
2023-05-06T07:04:59.758Z,3.70
2023-05-06T07:10:03.318Z,4.32
2023-05-06T07:15:07.578Z,3.85
2023-05-06T07:20:12.247Z,3.03
2023-05-06T07:25:16.096Z,4.75
2023-05-06T07:30:22.411Z,5.38
2023-05-06T07:35:26.998Z,5.35
2023-05-06T07:40:31.358Z,3.78
2023-05-06T07:45:35.215Z,5.30
2023-05-06T07:50:38.420Z,4.82
2023-05-06T07:55:41.610Z,6.38
2023-05-06T08:00:45.198Z,6.38
2023-05-06T08:05:51.678Z,4.70
2023-05-06T08:10:59.106Z,4.85
2023-05-06T08:16:02.987Z,4.45
2023-05-06T08:21:07.056Z,4.80
2023-05-06T08:26:10.954Z,4.75
2023-05-06T08:31:14.853Z,5.80
2023-05-06T08:36:18.554Z,4.55
2023-05-06T08:41:22.662Z,5.72
2023-05-06T08:46:27.703Z,5.80
2023-05-06T08:51:32.083Z,5.87
2023-05-06T08:56:38.206Z,4.68
2023-05-06T09:01:41.698Z,5.07
2023-05-06T09:06:44.893Z,6.15
2023-05-06T09:11:54.450Z,6.68
2023-05-06T09:16:58.722Z,5.07
2023-05-06T09:22:02.285Z,6.00
2023-05-06T09:27:08.344Z,5.68
2023-05-06T09:32:16.444Z,5.88
2023-05-06T09:37:21.352Z,7.13
2023-05-06T09:42:29.547Z,7.22
2023-05-06T09:47:36.740Z,5.18
2023-05-06T09:52:40.305Z,4.90
2023-05-06T09:57:45.448Z,4.93
2023-05-06T10:02:50.499Z,4.60
2023-05-06T10:07:57.633Z,5.93
2023-05-06T10:13:05.094Z,4.07
2023-05-06T10:18:09.933Z,11.40
2023-05-06T10:23:29.972Z,5.07
2023-05-06T10:28:40.272Z,3.45
2023-05-06T10:33:48.192Z,3.80
2023-05-06T10:38:57.533Z,8.50
2023-05-06T10:44:01.094Z,4.40
2023-05-06T10:49:11.643Z,3.40
2023-05-06T10:54:21.913Z,6.07
2023-05-06T10:59:26.851Z,3.65
2023-05-06T11:04:31.658Z,5.05
2023-05-06T11:09:58.541Z,3.58
2023-05-06T11:15:39.561Z,4.82
2023-05-06T11:20:43.112Z,4.88
2023-05-06T11:25:47.710Z,5.35
2023-05-06T11:30:56.143Z,17.92
2023-05-06T11:36:01.559Z,15.05
2023-05-06T11:46:07.831Z,6.38
2023-05-06T11:51:11.694Z,7.55
2023-05-06T11:56:15.076Z,4.15
2023-05-06T12:01:18.804Z,5.28
2023-05-06T12:06:34.785Z,5.40
2023-05-06T12:16:43.157Z,4.85
2023-05-06T12:21:47.262Z,5.20
2023-05-06T12:26:50.506Z,5.78
2023-05-06T12:32:09.484Z,4.55
2023-05-06T12:37:25.924Z,4.38
2023-05-06T12:42:29.721Z,4.25
2023-05-06T12:47:33.644Z,4.40
2023-05-06T12:52:45.308Z,6.50
2023-05-06T12:57:49.566Z,4.88
2023-05-06T13:02:53.465Z,7.75
2023-05-06T13:07:56.736Z,3.45
2023-05-06T13:13:01.074Z,5.50
2023-05-06T13:18:04.501Z,4.75
2023-05-06T13:23:08.139Z,4.47
2023-05-06T13:28:11.271Z,4.55
2023-05-06T13:33:15.074Z,4.18
2023-05-06T13:38:18.331Z,3.95
2023-05-06T13:43:25.152Z,5.70
2023-05-06T13:48:28.375Z,3.53
2023-05-06T13:53:32.610Z,3.92
2023-05-06T13:58:36.323Z,4.07
2023-05-06T14:03:39.671Z,3.92
2023-05-06T14:08:43.399Z,4.88
2023-05-06T14:13:46.542Z,4.65
2023-05-06T14:18:50.071Z,4.80
2023-05-06T14:23:53.738Z,3.25
2023-05-06T14:28:57.656Z,3.50
2023-05-06T14:34:02.065Z,5.53
2023-05-06T14:39:06.348Z,4.20
2023-05-06T14:44:09.857Z,5.63
2023-05-06T14:49:13.497Z,6.45
2023-05-06T14:54:17.831Z,3.90
2023-05-06T14:59:23.689Z,5.57
2023-05-06T15:04:28.011Z,4.25
2023-05-06T15:09:31.946Z,3.87
2023-05-06T15:14:35.536Z,6.80
2023-05-06T15:19:39.949Z,4.50
2023-05-06T15:24:43.680Z,3.77
2023-05-06T15:29:47.511Z,3.33
2023-05-06T15:34:50.603Z,3.80
2023-05-06T15:39:54.121Z,6.68
2023-05-06T15:44:58.708Z,7.95
2023-05-06T15:50:03.647Z,5.82
2023-05-06T15:55:14.581Z,4.22
2023-05-06T16:00:18.030Z,4.97
2023-05-06T16:05:21.721Z,5.47
2023-05-06T16:10:26.094Z,5.38
2023-05-06T16:15:30.089Z,4.07
2023-05-06T16:20:33.186Z,5.82
2023-05-06T16:25:40.637Z,6.10
2023-05-06T16:30:46.637Z,10.88
2023-05-06T16:35:50.243Z,7.70
2023-05-06T16:40:54.340Z,4.63
2023-05-06T16:45:57.743Z,3.88
2023-05-06T16:51:01.990Z,5.68
2023-05-06T16:56:06.305Z,4.28
2023-05-06T17:01:11.528Z,5.47
2023-05-06T17:06:15.194Z,4.65
2023-05-06T17:11:18.849Z,4.28
2023-05-06T17:16:24.310Z,4.55
2023-05-06T17:21:28.504Z,6.70
2023-05-06T17:26:33.434Z,7.57
2023-05-06T17:31:37.159Z,7.60
2023-05-06T17:36:41.452Z,6.22
2023-05-06T17:41:44.710Z,6.68
2023-05-06T17:46:48.731Z,7.10
2023-05-06T17:51:53.084Z,6.72
2023-05-06T17:56:56.655Z,8.30
2023-05-06T18:02:00.678Z,8.32
2023-05-06T18:07:04.226Z,8.73
2023-05-06T18:12:08.224Z,7.80
2023-05-06T18:17:12.283Z,10.07
2023-05-06T18:22:15.972Z,6.15
2023-05-06T18:27:19.874Z,6.05
2023-05-06T18:32:23.596Z,6.05
2023-05-06T18:37:30.213Z,6.40
2023-05-06T18:42:35.606Z,6.65
2023-05-06T18:47:40.588Z,6.95
2023-05-06T18:52:44.462Z,6.85
2023-05-06T18:57:48.156Z,9.35
2023-05-06T19:02:52.604Z,9.32
2023-05-06T19:07:56.754Z,10.27
2023-05-06T19:13:00.098Z,8.10
2023-05-06T19:18:04.205Z,8.82
2023-05-06T19:23:08.140Z,8.82
2023-05-06T19:28:19.521Z,9.93
2023-05-06T19:33:26.830Z,7.18
2023-05-06T19:38:30.600Z,7.28
2023-05-06T19:43:34.609Z,7.47
2023-05-06T19:48:42.009Z,8.50
2023-05-06T19:53:46.121Z,10.07
2023-05-06T19:58:51.320Z,6.40
2023-05-06T20:03:55.789Z,6.70
2023-05-06T20:08:59.039Z,8.93
2023-05-06T20:14:02.556Z,7.13
2023-05-06T20:19:06.423Z,6.28
2023-05-06T20:24:09.435Z,7.40
2023-05-06T20:29:14.105Z,8.82
2023-05-06T20:34:19.260Z,6.28
2023-05-06T20:39:27.671Z,10.23
2023-05-06T20:44:33.336Z,12.60
2023-05-06T20:49:37.305Z,9.07
2023-05-06T20:54:45.547Z,9.45
2023-05-06T20:59:52.885Z,7.72
2023-05-06T21:04:56.060Z,7.77
2023-05-06T21:10:00.549Z,10.05
2023-05-06T21:15:05.036Z,10.63
2023-05-06T21:20:08.972Z,8.38
2023-05-06T21:25:13.507Z,7.85
2023-05-06T21:30:17.655Z,11.75
2023-05-06T21:35:22.846Z,8.88
2023-05-06T21:40:26.738Z,6.95
2023-05-06T21:45:30.594Z,7.82
2023-05-06T21:50:33.655Z,8.20
2023-05-06T21:55:37.887Z,9.23
2023-05-06T22:00:41.618Z,9.73
2023-05-06T22:05:44.647Z,9.73
2023-05-06T22:10:48.768Z,8.68
2023-05-06T22:15:52.323Z,8.77
2023-05-06T22:20:57.074Z,8.23
2023-05-06T22:26:01.117Z,10.25
2023-05-06T22:31:04.901Z,10.55
2023-05-06T22:36:08.797Z,10.15
2023-05-06T22:41:12.029Z,8.75
2023-05-06T22:46:15.931Z,7.05
2023-05-06T22:51:21.458Z,10.63
2023-05-06T22:56:25.295Z,7.60
2023-05-06T23:01:32.438Z,7.45
2023-05-06T23:11:41.141Z,6.40
2023-05-06T23:16:44.657Z,8.77
2023-05-06T23:21:48.417Z,10.73
2023-05-06T23:26:52.731Z,9.05
2023-05-06T23:31:56.285Z,7.43
2023-05-06T23:37:00.257Z,6.43
2023-05-06T23:42:03.835Z,8.27
2023-05-06T23:47:07.742Z,8.38
2023-05-06T23:52:11.462Z,9.63
2023-05-06T23:57:15.086Z,6.88
